createdAt,value
2019-02-25T00:01:10.918Z,3.03
2019-02-25T00:03:40.690Z,3.02
2019-02-25T00:06:10.439Z,3.01
2019-02-25T00:08:40.235Z,3.06
2019-02-25T00:11:10.041Z,3.06
2019-02-25T00:13:39.812Z,3.07
2019-02-25T00:16:09.878Z,3.07
2019-02-25T00:18:39.626Z,3.07
2019-02-25T00:21:09.411Z,3.09
2019-02-25T00:23:39.187Z,3.09
2019-02-25T00:26:08.976Z,3.08
2019-02-25T00:28:38.767Z,3.10
2019-02-25T00:31:08.349Z,3.11
2019-02-25T00:33:38.199Z,3.11
2019-02-25T00:36:07.958Z,3.10
2019-02-25T00:38:37.738Z,3.08
2019-02-25T00:41:07.389Z,3.06
2019-02-25T00:43:37.121Z,3.08
2019-02-25T00:46:07.181Z,3.10
2019-02-25T00:48:36.969Z,3.12
2019-02-25T00:51:06.736Z,3.12
2019-02-25T00:53:36.516Z,3.12
2019-02-25T00:56:06.347Z,3.11
2019-02-25T00:58:36.158Z,3.13
2019-02-25T01:01:05.996Z,3.16
2019-02-25T01:03:35.992Z,3.16
2019-02-25T01:06:05.723Z,3.13
2019-02-25T01:08:35.534Z,3.08
2019-02-25T01:11:05.365Z,3.02
2019-02-25T01:13:35.166Z,3.02
2019-02-25T01:16:05.324Z,2.97
2019-02-25T01:18:35.150Z,2.95
2019-02-25T01:21:04.973Z,2.93
2019-02-25T01:23:34.802Z,2.95
2019-02-25T01:26:04.498Z,2.91
2019-02-25T01:28:34.291Z,2.92
2019-02-25T01:31:04.070Z,2.93
2019-02-25T01:33:33.835Z,2.94
2019-02-25T01:36:03.634Z,2.95
2019-02-25T01:38:33.452Z,2.95
2019-02-25T01:41:03.279Z,2.96
2019-02-25T01:43:33.078Z,2.96
2019-02-25T01:46:02.918Z,2.97
2019-02-25T01:48:32.727Z,2.94
2019-02-25T01:51:02.638Z,2.94
2019-02-25T01:53:32.686Z,2.95
2019-02-25T01:56:02.515Z,2.96
2019-02-25T01:58:32.255Z,2.97
2019-02-25T02:01:02.013Z,2.92
2019-02-25T02:03:31.771Z,2.86
2019-02-25T02:06:01.594Z,2.78
2019-02-25T02:08:31.386Z,2.73
2019-02-25T02:11:01.243Z,2.76
2019-02-25T02:13:31.451Z,2.70
2019-02-25T02:16:01.253Z,2.70
2019-02-25T02:18:31.047Z,2.70
2019-02-25T02:21:00.792Z,2.74
2019-02-25T02:23:30.470Z,2.96
2019-02-25T02:26:00.375Z,2.73
2019-02-25T02:28:31.146Z,2.73
2019-02-25T02:31:00.941Z,2.66
2019-02-25T02:33:30.691Z,2.67
2019-02-25T02:36:00.494Z,2.70
2019-02-25T02:38:30.275Z,2.66
2019-02-25T02:41:00.066Z,2.70
2019-02-25T02:43:29.945Z,2.76
2019-02-25T02:46:02.788Z,2.82
2019-02-25T02:48:44.556Z,2.85
2019-02-25T02:51:14.757Z,2.91
2019-02-25T02:53:44.470Z,2.85
2019-02-25T02:56:14.240Z,2.86
2019-02-25T02:58:44.035Z,2.89
2019-02-25T03:01:13.831Z,2.90
2019-02-25T03:03:43.552Z,2.95
2019-02-25T03:06:13.341Z,2.86
2019-02-25T03:08:43.134Z,2.86
2019-02-25T03:11:12.915Z,2.83
2019-02-25T03:13:42.700Z,2.84
2019-02-25T03:16:12.442Z,2.88
2019-02-25T03:18:42.121Z,2.83
2019-02-25T03:21:11.819Z,2.86
2019-02-25T03:23:41.635Z,2.83
2019-02-25T03:26:11.338Z,2.90
2019-02-25T03:28:41.395Z,2.91
2019-02-25T03:31:11.322Z,2.91
2019-02-25T03:33:41.976Z,2.95
2019-02-25T03:36:11.603Z,2.94
2019-02-25T03:38:41.489Z,2.94
2019-02-25T03:41:11.283Z,2.94
2019-02-25T03:43:41.786Z,2.96
2019-02-25T03:46:11.594Z,2.98
2019-02-25T03:48:41.395Z,3.00
2019-02-25T03:51:11.245Z,3.03
2019-02-25T03:53:40.943Z,3.03
2019-02-25T03:56:10.612Z,2.99
2019-02-25T03:58:40.499Z,2.96
2019-02-25T04:01:10.897Z,2.88
2019-02-25T04:03:40.687Z,2.84
2019-02-25T04:06:10.381Z,2.84
2019-02-25T04:08:40.177Z,2.82
2019-02-25T04:11:10.523Z,2.80
2019-02-25T04:13:40.356Z,2.78
2019-02-25T04:16:10.135Z,2.81
2019-02-25T04:18:39.916Z,2.84
2019-02-25T04:21:09.686Z,2.86
2019-02-25T04:23:39.474Z,2.89
2019-02-25T04:26:09.272Z,2.92
2019-02-25T04:28:39.089Z,2.92
2019-02-25T04:31:08.914Z,2.94
2019-02-25T04:33:39.699Z,2.96
2019-02-25T04:36:09.505Z,2.96
2019-02-25T04:38:40.128Z,2.98
2019-02-25T04:41:09.918Z,3.01
2019-02-25T04:43:39.803Z,3.02
2019-02-25T04:46:11.128Z,3.03
2019-02-25T04:48:40.941Z,3.06
2019-02-25T04:51:10.702Z,3.06
2019-02-25T04:53:40.515Z,3.04
2019-02-25T04:56:10.663Z,3.02
2019-02-25T04:58:40.446Z,3.03
2019-02-25T05:01:10.109Z,3.03
2019-02-25T05:03:39.905Z,3.01
2019-02-25T05:06:09.725Z,2.97
2019-02-25T05:08:39.518Z,2.90
2019-02-25T05:11:09.247Z,2.77
2019-02-25T05:13:38.985Z,2.68
2019-02-25T05:16:08.777Z,2.58
2019-02-25T05:18:38.523Z,2.50
2019-02-25T05:21:08.343Z,2.45
2019-02-25T05:23:41.277Z,2.37
2019-02-25T05:26:11.059Z,2.32
2019-02-25T05:28:40.812Z,2.30
2019-02-25T05:31:10.600Z,2.28
2019-02-25T05:33:40.498Z,2.23
2019-02-25T05:36:10.326Z,2.22
2019-02-25T05:38:40.170Z,2.16
2019-02-25T05:41:10.086Z,2.05
2019-02-25T05:43:39.878Z,2.19
2019-02-25T05:46:09.637Z,2.16
2019-02-25T05:48:39.323Z,2.12
2019-02-25T05:51:09.110Z,2.10
2019-02-25T05:53:38.886Z,2.15
2019-02-25T05:56:10.206Z,2.21
2019-02-25T05:58:39.946Z,2.33
2019-02-25T06:01:09.742Z,2.45
2019-02-25T06:03:39.518Z,2.56
2019-02-25T06:06:09.347Z,2.60
2019-02-25T06:08:39.153Z,2.58
2019-02-25T06:11:08.938Z,3.46
2019-02-25T06:13:38.878Z,4.74
2019-02-25T06:16:08.566Z,5.39
2019-02-25T06:18:38.370Z,5.81
2019-02-25T06:21:08.154Z,5.37
2019-02-25T06:23:38.006Z,5.50
2019-02-25T06:26:07.741Z,5.88
2019-02-25T06:28:37.517Z,6.27
2019-02-25T06:31:09.736Z,6.35
2019-02-25T06:33:39.695Z,6.58
2019-02-25T06:36:09.511Z,6.48
2019-02-25T06:38:39.287Z,5.91
2019-02-25T06:41:09.065Z,5.48
2019-02-25T06:43:38.662Z,5.29
2019-02-25T06:46:08.479Z,5.45
2019-02-25T06:48:38.317Z,5.50
2019-02-25T06:51:08.164Z,5.62
2019-02-25T06:53:40.957Z,5.92
2019-02-25T06:56:12.395Z,6.82
2019-02-25T06:58:42.497Z,6.81
2019-02-25T07:01:12.780Z,6.29
2019-02-25T07:03:43.648Z,5.80
2019-02-25T07:06:27.515Z,5.67
2019-02-25T07:08:58.905Z,5.28
2019-02-25T07:11:30.284Z,5.17
2019-02-25T07:14:04.698Z,4.41
2019-02-25T07:16:52.540Z,5.03
2019-02-25T07:19:23.865Z,5.05
2019-02-25T07:21:55.186Z,5.00
2019-02-25T07:24:32.214Z,5.20
2019-02-25T07:27:03.545Z,5.22
2019-02-25T07:29:34.925Z,5.25
2019-02-25T07:32:18.567Z,5.31
2019-02-25T07:34:49.948Z,5.40
2019-02-25T07:37:29.045Z,5.63
2019-02-25T07:40:28.856Z,5.92
2019-02-25T07:43:09.361Z,6.27
2019-02-25T07:45:52.972Z,6.59
2019-02-25T07:48:26.991Z,6.79
2019-02-25T07:51:04.443Z,6.95
2019-02-25T07:53:55.059Z,7.01
2019-02-25T07:56:35.478Z,7.52
2019-02-25T07:59:09.678Z,8.08
2019-02-25T08:01:45.005Z,7.62
2019-02-25T08:04:19.227Z,7.36
2019-02-25T08:06:50.699Z,7.40
2019-02-25T08:09:31.231Z,7.41
2019-02-25T08:12:05.285Z,7.42
2019-02-25T08:14:43.826Z,7.44
2019-02-25T08:17:24.067Z,7.43
2019-02-25T08:19:55.478Z,7.47
2019-02-25T08:22:42.068Z,7.45
2019-02-25T08:25:16.152Z,7.46
2019-02-25T08:28:04.615Z,7.46
2019-02-25T08:30:35.976Z,7.50
2019-02-25T08:33:07.494Z,7.61
2019-02-25T08:36:05.940Z,7.65
2019-02-25T08:38:38.516Z,7.72
2019-02-25T08:41:12.798Z,7.99
2019-02-25T08:43:47.045Z,8.10
2019-02-25T08:46:21.213Z,8.33
2019-02-25T08:48:52.694Z,8.58
2019-02-25T08:51:22.433Z,8.73
2019-02-25T08:53:52.202Z,8.75
2019-02-25T08:56:22.004Z,8.81
2019-02-25T08:58:51.820Z,8.80
2019-02-25T09:01:21.701Z,8.89
2019-02-25T09:03:51.428Z,8.99
2019-02-25T09:06:21.259Z,8.97
2019-02-25T09:08:51.037Z,8.95
2019-02-25T09:11:20.829Z,8.85
2019-02-25T09:13:50.653Z,9.11
2019-02-25T09:16:20.552Z,9.46
2019-02-25T09:18:50.347Z,9.75
2019-02-25T09:21:20.022Z,9.83
2019-02-25T09:23:52.339Z,10.06
2019-02-25T09:26:25.185Z,10.31
2019-02-25T09:28:57.423Z,10.41
2019-02-25T09:31:29.625Z,10.29
2019-02-25T09:33:59.400Z,10.34
2019-02-25T09:36:32.247Z,10.40
2019-02-25T09:39:02.623Z,10.07
2019-02-25T09:41:33.297Z,10.05
2019-02-25T09:44:03.144Z,10.14
2019-02-25T09:46:32.933Z,10.25
2019-02-25T09:49:03.078Z,10.14
2019-02-25T09:51:33.778Z,10.20
2019-02-25T09:54:05.590Z,10.44
2019-02-25T09:56:37.332Z,10.46
2019-02-25T09:59:06.971Z,10.32
2019-02-25T10:01:38.849Z,10.29
2019-02-25T10:04:09.626Z,10.21
2019-02-25T10:06:39.335Z,10.33
2019-02-25T10:09:09.995Z,10.33
2019-02-25T10:11:40.075Z,10.25
2019-02-25T10:14:09.892Z,10.22
2019-02-25T10:16:39.730Z,10.17
2019-02-25T10:19:09.900Z,10.05
2019-02-25T10:21:39.589Z,10.29
2019-02-25T10:24:09.399Z,10.56
2019-02-25T10:26:40.791Z,10.76
2019-02-25T10:29:10.967Z,10.92
2019-02-25T10:31:43.810Z,10.98
2019-02-25T10:34:13.844Z,11.14
2019-02-25T10:36:44.525Z,11.27
2019-02-25T10:39:17.755Z,11.45
2019-02-25T10:41:47.523Z,11.73
2019-02-25T10:44:17.931Z,12.07
2019-02-25T10:46:49.090Z,12.26
2019-02-25T10:49:19.497Z,12.26
2019-02-25T10:51:49.311Z,12.15
2019-02-25T10:54:21.661Z,12.03
2019-02-25T10:56:54.212Z,11.92
2019-02-25T10:59:23.827Z,12.05
2019-02-25T11:01:53.638Z,12.03
2019-02-25T11:04:23.907Z,11.95
2019-02-25T11:06:54.962Z,11.87
2019-02-25T11:09:35.438Z,11.78
2019-02-25T11:12:05.386Z,11.57
2019-02-25T11:14:36.509Z,11.51
2019-02-25T11:17:07.058Z,11.52
2019-02-25T11:19:38.434Z,11.54
2019-02-25T11:22:09.967Z,11.54
2019-02-25T11:24:39.779Z,11.48
2019-02-25T11:27:09.534Z,11.49
2019-02-25T11:29:40.500Z,11.35
2019-02-25T11:32:11.556Z,11.30
2019-02-25T11:34:41.379Z,11.40
2019-02-25T11:37:11.179Z,11.41
2019-02-25T11:39:41.031Z,11.46
2019-02-25T11:42:13.531Z,10.93
2019-02-25T11:44:43.147Z,11.28
2019-02-25T11:47:12.960Z,11.17
2019-02-25T11:49:42.739Z,11.19
2019-02-25T11:52:12.661Z,11.24
2019-02-25T11:54:44.146Z,11.29
2019-02-25T11:57:14.056Z,11.28
2019-02-25T11:59:44.165Z,11.23
2019-02-25T12:02:13.994Z,11.15
2019-02-25T12:04:43.894Z,11.10
2019-02-25T12:07:17.027Z,11.11
2019-02-25T12:09:48.678Z,11.08
2019-02-25T12:12:20.560Z,11.06
2019-02-25T12:14:50.378Z,11.00
2019-02-25T12:17:23.234Z,10.98
2019-02-25T12:19:54.566Z,10.98
2019-02-25T12:22:24.741Z,10.99
2019-02-25T12:24:54.965Z,10.92
2019-02-25T12:27:26.480Z,10.93
2019-02-25T12:30:01.428Z,10.93
2019-02-25T12:32:31.253Z,10.95
2019-02-25T12:35:02.204Z,11.02
2019-02-25T12:37:31.981Z,11.16
2019-02-25T12:40:04.240Z,11.30
2019-02-25T12:42:34.013Z,11.42
2019-02-25T12:45:04.507Z,11.50
2019-02-25T12:47:35.095Z,11.57
2019-02-25T12:50:07.755Z,11.79
2019-02-25T12:52:37.725Z,11.88
2019-02-25T12:55:10.374Z,11.89
2019-02-25T12:57:43.190Z,12.01
2019-02-25T13:00:17.298Z,12.16
2019-02-25T13:02:46.946Z,12.13
2019-02-25T13:05:24.179Z,12.33
2019-02-25T13:07:54.146Z,12.32
2019-02-25T13:10:24.224Z,12.34
2019-02-25T13:12:53.961Z,12.39
2019-02-25T13:15:25.641Z,12.52
2019-02-25T13:17:55.348Z,12.41
2019-02-25T13:20:24.944Z,12.39
2019-02-25T13:22:55.698Z,12.27
2019-02-25T13:25:33.235Z,12.20
2019-02-25T13:28:04.259Z,12.04
2019-02-25T13:30:35.231Z,11.92
2019-02-25T13:33:05.052Z,11.87
2019-02-25T13:35:35.494Z,11.91
2019-02-25T13:38:05.297Z,11.88
2019-02-25T13:40:35.300Z,12.04
2019-02-25T13:43:06.674Z,12.07
2019-02-25T13:45:36.466Z,12.12
2019-02-25T13:48:08.092Z,12.10
2019-02-25T13:50:38.588Z,12.07
2019-02-25T13:53:08.418Z,12.06
2019-02-25T13:55:38.108Z,11.98
2019-02-25T13:58:07.983Z,11.92
2019-02-25T14:00:37.803Z,11.86
2019-02-25T14:03:07.836Z,11.77
2019-02-25T14:05:37.705Z,11.69
2019-02-25T14:08:07.428Z,11.67
2019-02-25T14:10:37.767Z,11.57
2019-02-25T14:13:07.704Z,11.49
2019-02-25T14:15:37.507Z,11.45
2019-02-25T14:18:07.315Z,11.56
2019-02-25T14:20:37.206Z,11.50
2019-02-25T14:23:07.062Z,11.41
2019-02-25T14:25:38.385Z,11.34
2019-02-25T14:28:08.833Z,11.30
2019-02-25T14:30:38.635Z,11.27
2019-02-25T14:33:12.778Z,11.25
2019-02-25T14:35:41.656Z,11.26
2019-02-25T14:38:17.346Z,11.24
2019-02-25T14:40:46.652Z,11.22
2019-02-25T14:43:17.687Z,11.29
2019-02-25T14:45:53.107Z,11.26
2019-02-25T14:48:21.057Z,11.22
2019-02-25T14:50:51.502Z,11.19
2019-02-25T14:53:24.530Z,11.11
2019-02-25T14:55:56.009Z,11.07
2019-02-25T14:58:31.348Z,11.03
2019-02-25T15:00:59.862Z,11.02
2019-02-25T15:03:29.623Z,10.94
2019-02-25T15:05:59.523Z,10.85
2019-02-25T15:08:30.647Z,10.76
2019-02-25T15:11:02.889Z,10.67
2019-02-25T15:13:34.993Z,10.60
2019-02-25T15:16:05.236Z,10.54
2019-02-25T15:18:35.058Z,10.50
2019-02-25T15:21:06.812Z,10.46
2019-02-25T15:23:37.406Z,10.40
2019-02-25T15:26:07.212Z,10.39
2019-02-25T15:28:39.534Z,10.37
2019-02-25T15:31:11.348Z,10.36
2019-02-25T15:33:42.477Z,10.34
2019-02-25T15:36:13.546Z,10.35
2019-02-25T15:38:43.983Z,10.37
2019-02-25T15:41:14.966Z,10.38
2019-02-25T15:43:44.841Z,10.35
2019-02-25T15:46:16.649Z,10.33
2019-02-25T15:48:46.341Z,10.31
2019-02-25T15:51:18.324Z,10.25
2019-02-25T15:53:48.995Z,10.18
2019-02-25T15:56:19.318Z,10.10
2019-02-25T15:58:49.314Z,10.03
2019-02-25T16:01:19.090Z,9.94
2019-02-25T16:03:49.350Z,9.84
2019-02-25T16:06:19.447Z,9.75
2019-02-25T16:08:51.885Z,9.67
2019-02-25T16:11:25.681Z,9.59
2019-02-25T16:14:00.086Z,9.52
2019-02-25T16:16:29.738Z,9.44
2019-02-25T16:18:59.564Z,9.36
2019-02-25T16:21:31.752Z,9.29
2019-02-25T16:24:04.151Z,9.23
2019-02-25T16:26:34.284Z,9.16
2019-02-25T16:29:06.622Z,9.07
2019-02-25T16:31:37.658Z,9.00
2019-02-25T16:34:07.610Z,8.91
2019-02-25T16:36:37.463Z,8.83
2019-02-25T16:39:10.005Z,8.79
2019-02-25T16:41:41.802Z,8.72
2019-02-25T16:44:11.635Z,8.65
2019-02-25T16:46:43.550Z,8.58
2019-02-25T16:49:13.219Z,8.51
2019-02-25T16:51:43.020Z,8.47
2019-02-25T16:54:13.574Z,8.41
2019-02-25T16:56:44.710Z,8.36
2019-02-25T16:59:15.778Z,8.30
2019-02-25T17:01:46.251Z,8.24
2019-02-25T17:04:19.804Z,8.18
2019-02-25T17:06:49.149Z,8.13
2019-02-25T17:09:20.413Z,8.05
2019-02-25T17:11:50.640Z,7.96
2019-02-25T17:14:21.666Z,7.85
2019-02-25T17:16:52.023Z,7.76
2019-02-25T17:19:22.532Z,7.67
2019-02-25T17:21:52.503Z,7.60
2019-02-25T17:24:24.070Z,7.51
2019-02-25T17:26:53.891Z,7.44
2019-02-25T17:29:24.669Z,7.40
2019-02-25T17:31:56.922Z,7.35
2019-02-25T17:34:26.679Z,7.30
2019-02-25T17:36:56.885Z,7.26
2019-02-25T17:39:26.671Z,7.26
2019-02-25T17:41:57.674Z,7.32
2019-02-25T17:44:30.021Z,7.31
2019-02-25T17:47:01.930Z,7.22
2019-02-25T17:49:32.320Z,7.10
2019-02-25T17:52:06.187Z,7.00
2019-02-25T17:54:37.653Z,6.88
2019-02-25T17:57:08.055Z,6.81
2019-02-25T17:59:39.250Z,6.71
2019-02-25T18:02:10.493Z,6.73
2019-02-25T18:04:40.885Z,6.65
2019-02-25T18:07:10.786Z,6.56
2019-02-25T18:09:42.241Z,6.52
2019-02-25T18:12:12.090Z,6.46
2019-02-25T18:14:43.183Z,6.47
2019-02-25T18:17:16.667Z,6.51
2019-02-25T18:19:45.694Z,6.52
2019-02-25T18:22:17.527Z,6.49
2019-02-25T18:24:47.505Z,6.59
2019-02-25T18:27:17.477Z,6.74
2019-02-25T18:29:48.156Z,6.67
2019-02-25T18:32:18.889Z,6.59
2019-02-25T18:34:49.939Z,6.51
2019-02-25T18:37:20.391Z,6.40
2019-02-25T18:39:52.234Z,6.34
2019-02-25T18:42:22.839Z,6.28
2019-02-25T18:44:53.542Z,6.23
2019-02-25T18:47:25.595Z,6.17
2019-02-25T18:49:56.664Z,6.74
2019-02-25T18:52:29.230Z,7.22
2019-02-25T18:55:02.002Z,6.95
2019-02-25T18:57:31.379Z,6.68
2019-02-25T19:00:05.769Z,6.51
2019-02-25T19:02:37.709Z,6.37
2019-02-25T19:05:10.648Z,6.21
2019-02-25T19:07:40.646Z,6.13
2019-02-25T19:10:12.449Z,6.06
2019-02-25T19:12:43.859Z,6.06
2019-02-25T19:15:14.225Z,6.06
2019-02-25T19:17:45.757Z,6.03
2019-02-25T19:20:16.820Z,5.95
2019-02-25T19:22:46.663Z,5.87
2019-02-25T19:25:20.031Z,5.78
2019-02-25T19:27:50.142Z,5.71
2019-02-25T19:30:22.244Z,5.64
2019-02-25T19:32:52.714Z,5.60
2019-02-25T19:35:27.788Z,5.52
2019-02-25T19:37:56.886Z,5.52
2019-02-25T19:40:27.943Z,5.58
2019-02-25T19:42:59.532Z,5.63
2019-02-25T19:45:30.520Z,5.71
2019-02-25T19:48:02.264Z,5.75
2019-02-25T19:50:34.165Z,5.74
2019-02-25T19:53:05.239Z,5.76
2019-02-25T19:55:36.159Z,5.70
2019-02-25T19:58:08.465Z,5.80
2019-02-25T20:00:39.304Z,5.79
2019-02-25T20:03:09.291Z,5.65
2019-02-25T20:05:43.364Z,5.82
2019-02-25T20:08:12.947Z,5.86
2019-02-25T20:10:45.420Z,5.68
2019-02-25T20:13:17.274Z,5.44
2019-02-25T20:15:49.098Z,5.32
2019-02-25T20:18:20.692Z,5.18
2019-02-25T20:20:50.809Z,4.46
2019-02-25T20:23:22.271Z,5.01
2019-02-25T20:25:53.511Z,4.97
2019-02-25T20:28:25.064Z,4.88
2019-02-25T20:30:56.339Z,4.85
2019-02-25T20:33:30.411Z,4.77
2019-02-25T20:35:58.931Z,4.71
2019-02-25T20:38:30.086Z,4.72
2019-02-25T20:41:02.534Z,4.74
2019-02-25T20:43:32.633Z,4.74
2019-02-25T20:46:04.039Z,4.72
2019-02-25T20:48:34.506Z,4.65
2019-02-25T20:51:06.733Z,4.59
2019-02-25T20:53:37.695Z,4.55
2019-02-25T20:56:07.574Z,4.48
2019-02-25T20:58:38.317Z,4.38
2019-02-25T21:01:09.850Z,4.33
2019-02-25T21:03:43.900Z,4.30
2019-02-25T21:06:14.514Z,4.32
2019-02-25T21:08:46.569Z,4.26
2019-02-25T21:11:16.072Z,4.19
2019-02-25T21:13:46.978Z,4.12
2019-02-25T21:16:17.071Z,4.06
2019-02-25T21:18:48.688Z,4.16
2019-02-25T21:21:18.472Z,4.09
2019-02-25T21:23:48.314Z,4.20
2019-02-25T21:26:18.104Z,4.18
2019-02-25T21:28:47.893Z,4.36
2019-02-25T21:31:19.557Z,4.37
2019-02-25T21:33:50.066Z,4.46
2019-02-25T21:36:20.802Z,4.46
2019-02-25T21:38:51.616Z,4.56
2019-02-25T21:41:22.805Z,4.64
2019-02-25T21:43:54.064Z,4.55
2019-02-25T21:46:26.047Z,4.48
2019-02-25T21:48:57.550Z,4.37
2019-02-25T21:51:28.092Z,4.33
2019-02-25T21:53:59.942Z,4.31
2019-02-25T21:56:30.197Z,4.31
2019-02-25T21:59:01.499Z,4.29
2019-02-25T22:01:32.309Z,4.22
2019-02-25T22:04:02.883Z,4.14
2019-02-25T22:06:33.222Z,4.12
2019-02-25T22:09:05.057Z,4.00
2019-02-25T22:11:34.866Z,4.00
2019-02-25T22:14:04.601Z,3.95
2019-02-25T22:16:43.662Z,3.94
2019-02-25T22:19:05.885Z,4.01
2019-02-25T22:21:35.668Z,4.06
2019-02-25T22:24:07.425Z,4.26
2019-02-25T22:26:37.668Z,4.24
2019-02-25T22:29:07.524Z,4.14
2019-02-25T22:31:39.420Z,4.06
2019-02-25T22:34:12.635Z,4.12
2019-02-25T22:36:43.783Z,4.10
2019-02-25T22:39:12.747Z,4.08
2019-02-25T22:41:44.442Z,4.30
2019-02-25T22:44:14.054Z,4.35
2019-02-25T22:46:43.872Z,4.29
2019-02-25T22:49:13.702Z,4.26
2019-02-25T22:51:45.127Z,4.25
2019-02-25T22:54:17.038Z,4.32
2019-02-25T22:56:46.426Z,4.32
2019-02-25T22:59:20.045Z,4.30
2019-02-25T23:01:47.713Z,4.28
2019-02-25T23:04:19.565Z,4.42
2019-02-25T23:06:51.259Z,4.33
2019-02-25T23:09:21.313Z,4.35
2019-02-25T23:11:53.137Z,4.37
2019-02-25T23:14:23.439Z,4.32
2019-02-25T23:16:53.283Z,4.35
2019-02-25T23:19:23.179Z,4.32
2019-02-25T23:21:52.973Z,4.29
2019-02-25T23:24:26.011Z,4.30
2019-02-25T23:26:55.249Z,4.28
2019-02-25T23:29:28.422Z,4.30
2019-02-25T23:32:01.776Z,4.37
2019-02-25T23:34:28.820Z,4.39
2019-02-25T23:36:59.476Z,4.39
2019-02-25T23:39:32.034Z,4.44
2019-02-25T23:42:04.691Z,4.46
2019-02-25T23:44:32.135Z,4.44
2019-02-25T23:47:03.945Z,4.37
2019-02-25T23:49:33.972Z,4.38
2019-02-25T23:52:04.948Z,4.46
2019-02-25T23:54:34.873Z,4.51
2019-02-25T23:57:04.655Z,4.48
2019-02-25T23:59:34.472Z,4.44
